sensor_id;sensor_type;location;lat;lon;timestamp;pressure;altitude;pressure_sealevel;temperature;humidity
25080;BME280;13071;48.868;9.996;2023-01-24T00:01:24;97867.03;;;0.95;100.00
25080;BME280;13071;48.868;9.996;2023-01-24T00:03:50;97871.28;;;1.07;100.00
25080;BME280;13071;48.868;9.996;2023-01-24T00:06:17;97867.00;;;1.06;100.00
25080;BME280;13071;48.868;9.996;2023-01-24T00:08:44;97863.03;;;1.09;100.00
25080;BME280;13071;48.868;9.996;2023-01-24T00:11:11;97859.41;;;1.15;100.00
25080;BME280;13071;48.868;9.996;2023-01-24T00:13:38;97868.03;;;1.05;100.00
25080;BME280;13071;48.868;9.996;2023-01-24T00:16:15;97875.47;;;1.03;100.00
25080;BME280;13071;48.868;9.996;2023-01-24T00:18:42;97864.56;;;1.05;100.00
25080;BME280;13071;48.868;9.996;2023-01-24T00:21:11;97859.63;;;0.97;100.00
25080;BME280;13071;48.868;9.996;2023-01-24T00:23:38;97849.38;;;1.05;100.00
25080;BME280;13071;48.868;9.996;2023-01-24T00:26:05;97856.81;;;1.03;100.00
25080;BME280;13071;48.868;9.996;2023-01-24T00:28:32;97868.75;;;1.01;100.00
25080;BME280;13071;48.868;9.996;2023-01-24T00:30:59;97859.22;;;1.05;100.00
25080;BME280;13071;48.868;9.996;2023-01-24T00:33:27;97858.91;;;1.01;100.00
25080;BME280;13071;48.868;9.996;2023-01-24T00:35:53;97870.88;;;0.99;100.00
25080;BME280;13071;48.868;9.996;2023-01-24T00:38:21;97855.22;;;0.91;100.00
25080;BME280;13071;48.868;9.996;2023-01-24T00:40:48;97850.94;;;0.90;100.00
25080;BME280;13071;48.868;9.996;2023-01-24T00:43:15;97846.16;;;1.03;100.00
25080;BME280;13071;48.868;9.996;2023-01-24T00:45:44;97845.88;;;1.05;100.00
25080;BME280;13071;48.868;9.996;2023-01-24T00:48:11;97842.75;;;1.08;100.00
25080;BME280;13071;48.868;9.996;2023-01-24T00:50:39;97842.19;;;1.06;100.00
25080;BME280;13071;48.868;9.996;2023-01-24T00:53:06;97846.81;;;0.82;100.00
25080;BME280;13071;48.868;9.996;2023-01-24T00:55:33;97847.09;;;0.97;100.00
25080;BME280;13071;48.868;9.996;2023-01-24T00:57:59;97859.19;;;0.88;100.00
25080;BME280;13071;48.868;9.996;2023-01-24T01:00:26;97849.47;;;1.10;100.00
25080;BME280;13071;48.868;9.996;2023-01-24T01:02:53;97856.84;;;0.92;100.00
25080;BME280;13071;48.868;9.996;2023-01-24T01:05:19;97858.72;;;0.91;100.00
25080;BME280;13071;48.868;9.996;2023-01-24T01:07:47;97857.13;;;1.07;100.00
25080;BME280;13071;48.868;9.996;2023-01-24T01:10:14;97860.84;;;0.77;100.00
25080;BME280;13071;48.868;9.996;2023-01-24T01:12:40;97865.38;;;0.77;100.00
25080;BME280;13071;48.868;9.996;2023-01-24T01:15:07;97877.56;;;0.73;100.00
25080;BME280;13071;48.868;9.996;2023-01-24T01:17:34;97868.94;;;0.82;100.00
25080;BME280;13071;48.868;9.996;2023-01-24T01:20:01;97876.31;;;0.92;100.00
25080;BME280;13071;48.868;9.996;2023-01-24T01:22:27;97878.78;;;1.10;100.00
25080;BME280;13071;48.868;9.996;2023-01-24T01:24:55;97880.22;;;1.01;100.00
25080;BME280;13071;48.868;9.996;2023-01-24T01:27:22;97876.19;;;0.99;100.00
25080;BME280;13071;48.868;9.996;2023-01-24T01:29:48;97875.41;;;0.86;100.00
25080;BME280;13071;48.868;9.996;2023-01-24T01:32:15;97872.53;;;0.88;100.00
25080;BME280;13071;48.868;9.996;2023-01-24T01:34:41;97880.44;;;1.00;100.00
25080;BME280;13071;48.868;9.996;2023-01-24T01:37:08;97884.56;;;0.91;100.00
25080;BME280;13071;48.868;9.996;2023-01-24T01:39:34;97882.66;;;1.03;100.00
25080;BME280;13071;48.868;9.996;2023-01-24T01:42:02;97902.59;;;1.00;100.00
25080;BME280;13071;48.868;9.996;2023-01-24T01:44:31;97886.50;;;0.95;100.00
25080;BME280;13071;48.868;9.996;2023-01-24T01:47:17;97889.34;;;1.05;100.00
25080;BME280;13071;48.868;9.996;2023-01-24T01:49:48;97884.59;;;1.07;100.00
25080;BME280;13071;48.868;9.996;2023-01-24T01:52:17;97892.44;;;1.14;100.00
25080;BME280;13071;48.868;9.996;2023-01-24T01:54:46;97897.56;;;1.15;100.00
25080;BME280;13071;48.868;9.996;2023-01-24T01:57:18;97894.78;;;1.10;100.00
25080;BME280;13071;48.868;9.996;2023-01-24T01:59:49;97896.50;;;1.16;100.00
25080;BME280;13071;48.868;9.996;2023-01-24T02:02:19;97889.31;;;1.17;100.00
25080;BME280;13071;48.868;9.996;2023-01-24T02:04:48;97897.09;;;1.18;100.00
25080;BME280;13071;48.868;9.996;2023-01-24T02:07:19;97888.00;;;1.19;100.00
25080;BME280;13071;48.868;9.996;2023-01-24T02:09:49;97891.09;;;1.11;100.00
25080;BME280;13071;48.868;9.996;2023-01-24T02:12:20;97885.66;;;1.06;100.00
25080;BME280;13071;48.868;9.996;2023-01-24T02:14:51;97896.09;;;1.08;100.00
25080;BME280;13071;48.868;9.996;2023-01-24T02:17:35;97900.22;;;1.15;100.00
25080;BME280;13071;48.868;9.996;2023-01-24T02:20:31;97891.47;;;1.03;100.00
25080;BME280;13071;48.868;9.996;2023-01-24T02:23:11;97900.69;;;1.12;100.00
25080;BME280;13071;48.868;9.996;2023-01-24T02:25:44;97888.81;;;1.03;100.00
25080;BME280;13071;48.868;9.996;2023-01-24T02:28:14;97881.69;;;1.09;100.00
25080;BME280;13071;48.868;9.996;2023-01-24T02:30:41;97893.97;;;1.10;100.00
25080;BME280;13071;48.868;9.996;2023-01-24T02:33:09;97896.72;;;0.98;100.00
25080;BME280;13071;48.868;9.996;2023-01-24T02:35:36;97894.69;;;1.05;100.00
25080;BME280;13071;48.868;9.996;2023-01-24T02:38:05;97896.31;;;1.06;100.00
25080;BME280;13071;48.868;9.996;2023-01-24T02:40:32;97897.56;;;1.15;100.00
25080;BME280;13071;48.868;9.996;2023-01-24T02:43:02;97895.81;;;1.09;100.00
25080;BME280;13071;48.868;9.996;2023-01-24T02:45:33;97901.59;;;0.90;100.00
25080;BME280;13071;48.868;9.996;2023-01-24T02:48:00;97908.25;;;1.04;100.00
25080;BME280;13071;48.868;9.996;2023-01-24T02:50:29;97906.34;;;1.16;100.00
25080;BME280;13071;48.868;9.996;2023-01-24T02:53:17;97913.84;;;1.02;100.00
25080;BME280;13071;48.868;9.996;2023-01-24T02:55:54;97912.31;;;1.06;100.00
25080;BME280;13071;48.868;9.996;2023-01-24T02:58:38;97914.97;;;1.06;100.00
25080;BME280;13071;48.868;9.996;2023-01-24T03:01:06;97916.81;;;1.17;100.00
25080;BME280;13071;48.868;9.996;2023-01-24T03:03:33;97914.44;;;0.93;100.00
25080;BME280;13071;48.868;9.996;2023-01-24T03:05:59;97927.72;;;1.04;100.00
25080;BME280;13071;48.868;9.996;2023-01-24T03:08:27;97922.84;;;1.13;100.00
25080;BME280;13071;48.868;9.996;2023-01-24T03:10:54;97927.78;;;1.21;100.00
25080;BME280;13071;48.868;9.996;2023-01-24T03:13:21;97922.25;;;1.11;100.00
25080;BME280;13071;48.868;9.996;2023-01-24T03:16:07;97918.47;;;1.07;100.00
25080;BME280;13071;48.868;9.996;2023-01-24T03:18:51;97931.41;;;1.15;100.00
25080;BME280;13071;48.868;9.996;2023-01-24T03:21:36;97932.53;;;1.19;100.00
25080;BME280;13071;48.868;9.996;2023-01-24T03:24:20;97916.31;;;0.92;100.00
25080;BME280;13071;48.868;9.996;2023-01-24T03:27:05;97923.22;;;1.05;100.00
25080;BME280;13071;48.868;9.996;2023-01-24T03:29:49;97926.78;;;1.10;100.00
25080;BME280;13071;48.868;9.996;2023-01-24T03:32:35;97911.78;;;0.93;100.00
25080;BME280;13071;48.868;9.996;2023-01-24T03:35:19;97914.88;;;1.01;100.00
25080;BME280;13071;48.868;9.996;2023-01-24T03:37:46;97913.84;;;1.02;100.00
25080;BME280;13071;48.868;9.996;2023-01-24T03:40:30;97924.81;;;1.17;100.00
25080;BME280;13071;48.868;9.996;2023-01-24T03:42:58;97920.28;;;1.18;100.00
25080;BME280;13071;48.868;9.996;2023-01-24T03:45:26;97914.88;;;1.01;100.00
25080;BME280;13071;48.868;9.996;2023-01-24T03:47:56;97922.75;;;1.08;100.00
25080;BME280;13071;48.868;9.996;2023-01-24T03:50:25;97925.97;;;1.10;100.00
25080;BME280;13071;48.868;9.996;2023-01-24T03:53:10;97912.94;;;0.97;100.00
25080;BME280;13071;48.868;9.996;2023-01-24T03:55:37;97930.38;;;1.04;100.00
25080;BME280;13071;48.868;9.996;2023-01-24T03:58:04;97923.31;;;1.10;100.00
25080;BME280;13071;48.868;9.996;2023-01-24T04:00:32;97926.38;;;0.90;100.00
25080;BME280;13071;48.868;9.996;2023-01-24T04:03:01;97921.63;;;0.92;100.00
25080;BME280;13071;48.868;9.996;2023-01-24T04:05:27;97927.53;;;0.94;100.00
25080;BME280;13071;48.868;9.996;2023-01-24T04:07:55;97917.56;;;0.90;100.00
25080;BME280;13071;48.868;9.996;2023-01-24T04:10:22;97926.63;;;0.89;100.00
25080;BME280;13071;48.868;9.996;2023-01-24T04:12:49;97926.22;;;1.08;100.00
25080;BME280;13071;48.868;9.996;2023-01-24T04:15:18;97924.97;;;0.99;100.00
25080;BME280;13071;48.868;9.996;2023-01-24T04:17:44;97920.81;;;1.03;100.00
25080;BME280;13071;48.868;9.996;2023-01-24T04:20:13;97921.22;;;1.12;100.00
25080;BME280;13071;48.868;9.996;2023-01-24T04:22:40;97926.66;;;1.17;100.00
25080;BME280;13071;48.868;9.996;2023-01-24T04:25:08;97924.84;;;1.06;100.00
25080;BME280;13071;48.868;9.996;2023-01-24T04:27:35;97923.47;;;1.03;100.00
25080;BME280;13071;48.868;9.996;2023-01-24T04:30:03;97919.81;;;1.09;100.00
25080;BME280;13071;48.868;9.996;2023-01-24T04:32:29;97913.59;;;1.04;100.00
25080;BME280;13071;48.868;9.996;2023-01-24T04:34:56;97919.88;;;1.26;100.00
25080;BME280;13071;48.868;9.996;2023-01-24T04:37:24;97921.03;;;1.02;100.00
25080;BME280;13071;48.868;9.996;2023-01-24T04:39:50;97924.22;;;1.15;100.00
25080;BME280;13071;48.868;9.996;2023-01-24T04:42:17;97925.25;;;1.14;100.00
25080;BME280;13071;48.868;9.996;2023-01-24T04:44:43;97927.28;;;1.07;100.00
25080;BME280;13071;48.868;9.996;2023-01-24T04:47:10;97930.59;;;1.14;100.00
25080;BME280;13071;48.868;9.996;2023-01-24T04:49:36;97925.88;;;1.05;100.00
25080;BME280;13071;48.868;9.996;2023-01-24T04:52:03;97926.38;;;0.90;100.00
25080;BME280;13071;48.868;9.996;2023-01-24T04:54:31;97925.41;;;1.08;100.00
25080;BME280;13071;48.868;9.996;2023-01-24T04:56:58;97929.22;;;1.12;100.00
25080;BME280;13071;48.868;9.996;2023-01-24T04:59:24;97926.38;;;0.90;100.00
25080;BME280;13071;48.868;9.996;2023-01-24T05:01:51;97928.94;;;0.97;100.00
25080;BME280;13071;48.868;9.996;2023-01-24T05:04:18;97935.06;;;0.97;100.00
25080;BME280;13071;48.868;9.996;2023-01-24T05:06:44;97938.16;;;1.06;100.00
25080;BME280;13071;48.868;9.996;2023-01-24T05:09:11;97941.97;;;1.10;100.00
25080;BME280;13071;48.868;9.996;2023-01-24T05:11:39;97946.25;;;1.11;100.00
25080;BME280;13071;48.868;9.996;2023-01-24T05:14:08;97942.47;;;1.07;100.00
25080;BME280;13071;48.868;9.996;2023-01-24T05:16:35;97946.84;;;1.13;100.00
25080;BME280;13071;48.868;9.996;2023-01-24T05:19:01;97951.94;;;1.14;100.00
25080;BME280;13071;48.868;9.996;2023-01-24T05:21:28;97953.84;;;1.02;100.00
25080;BME280;13071;48.868;9.996;2023-01-24T05:23:54;97955.19;;;1.05;100.00
25080;BME280;13071;48.868;9.996;2023-01-24T05:26:23;97949.63;;;1.06;100.00
25080;BME280;13071;48.868;9.996;2023-01-24T05:28:52;97949.34;;;0.91;100.00
25080;BME280;13071;48.868;9.996;2023-01-24T05:31:19;97943.16;;;1.02;100.00
25080;BME280;13071;48.868;9.996;2023-01-24T05:33:46;97956.19;;;0.75;100.00
25080;BME280;13071;48.868;9.996;2023-01-24T05:36:14;97958.25;;;0.85;100.00
25080;BME280;13071;48.868;9.996;2023-01-24T05:38:41;97959.50;;;0.94;100.00
25080;BME280;13071;48.868;9.996;2023-01-24T05:41:09;97971.47;;;1.03;100.00
25080;BME280;13071;48.868;9.996;2023-01-24T05:43:36;97966.69;;;1.05;100.00
25080;BME280;13071;48.868;9.996;2023-01-24T05:46:06;97975.72;;;1.04;100.00
25080;BME280;13071;48.868;9.996;2023-01-24T05:48:33;97972.63;;;0.96;100.00
25080;BME280;13071;48.868;9.996;2023-01-24T05:51:02;97974.56;;;1.00;100.00
25080;BME280;13071;48.868;9.996;2023-01-24T05:53:29;97961.84;;;1.02;100.00
25080;BME280;13071;48.868;9.996;2023-01-24T05:55:57;97968.53;;;1.05;100.00
25080;BME280;13071;48.868;9.996;2023-01-24T05:58:25;97972.50;;;1.02;100.00
25080;BME280;13071;48.868;9.996;2023-01-24T06:00:51;97971.34;;;0.98;100.00
25080;BME280;13071;48.868;9.996;2023-01-24T06:03:20;97966.84;;;0.99;100.00
25080;BME280;13071;48.868;9.996;2023-01-24T06:05:47;97979.19;;;1.05;100.00
25080;BME280;13071;48.868;9.996;2023-01-24T06:08:15;97975.50;;;0.94;100.00
25080;BME280;13071;48.868;9.996;2023-01-24T06:10:42;97971.09;;;1.00;100.00
25080;BME280;13071;48.868;9.996;2023-01-24T06:13:09;97979.19;;;1.05;100.00
25080;BME280;13071;48.868;9.996;2023-01-24T06:15:37;97977.25;;;1.00;100.00
25080;BME280;13071;48.868;9.996;2023-01-24T06:18:03;97985.38;;;0.94;100.00
25080;BME280;13071;48.868;9.996;2023-01-24T06:20:32;97982.25;;;0.97;100.00
25080;BME280;13071;48.868;9.996;2023-01-24T06:23:02;97989.00;;;0.88;100.00
25080;BME280;13071;48.868;9.996;2023-01-24T06:25:30;97983.50;;;0.94;100.00
25080;BME280;13071;48.868;9.996;2023-01-24T06:27:57;97982.63;;;0.89;100.00
25080;BME280;13071;48.868;9.996;2023-01-24T06:30:25;97980.94;;;0.99;100.00
25080;BME280;13071;48.868;9.996;2023-01-24T06:33:06;97983.06;;;0.97;100.00
25080;BME280;13071;48.868;9.996;2023-01-24T06:35:49;97989.44;;;0.96;100.00
25080;BME280;13071;48.868;9.996;2023-01-24T06:38:23;97983.06;;;0.85;100.00
25080;BME280;13071;48.868;9.996;2023-01-24T06:40:54;97989.69;;;0.83;100.00
25080;BME280;13071;48.868;9.996;2023-01-24T06:43:22;97993.19;;;0.83;100.00
25080;BME280;13071;48.868;9.996;2023-01-24T06:45:49;97999.44;;;0.77;100.00
25080;BME280;13071;48.868;9.996;2023-01-24T06:48:15;97996.88;;;0.82;100.00
25080;BME280;13071;48.868;9.996;2023-01-24T06:50:43;98004.38;;;0.85;100.00
25080;BME280;13071;48.868;9.996;2023-01-24T06:53:10;98005.91;;;0.81;100.00
25080;BME280;13071;48.868;9.996;2023-01-24T06:55:38;98000.34;;;0.71;100.00
25080;BME280;13071;48.868;9.996;2023-01-24T06:58:04;98002.91;;;0.78;100.00
25080;BME280;13071;48.868;9.996;2023-01-24T07:00:31;98004.94;;;0.99;100.00
25080;BME280;13071;48.868;9.996;2023-01-24T07:02:58;98002.53;;;0.98;100.00
25080;BME280;13071;48.868;9.996;2023-01-24T07:05:25;98002.63;;;1.03;100.00
25080;BME280;13071;48.868;9.996;2023-01-24T07:07:53;98016.34;;;0.83;100.00
25080;BME280;13071;48.868;9.996;2023-01-24T07:10:20;98021.09;;;0.93;100.00
25080;BME280;13071;48.868;9.996;2023-01-24T07:12:46;98028.22;;;1.04;100.00
25080;BME280;13071;48.868;9.996;2023-01-24T07:15:13;98041.34;;;1.05;100.00
25080;BME280;13071;48.868;9.996;2023-01-24T07:17:40;98031.97;;;0.91;100.00
25080;BME280;13071;48.868;9.996;2023-01-24T07:20:08;98038.00;;;0.86;100.00
25080;BME280;13071;48.868;9.996;2023-01-24T07:22:37;98036.00;;;1.05;100.00
25080;BME280;13071;48.868;9.996;2023-01-24T07:25:11;98035.28;;;1.10;100.00
25080;BME280;13071;48.868;9.996;2023-01-24T07:27:39;98036.94;;;0.99;100.00
25080;BME280;13071;48.868;9.996;2023-01-24T07:30:07;98045.63;;;1.06;100.00
25080;BME280;13071;48.868;9.996;2023-01-24T07:32:33;98038.72;;;0.94;100.00
25080;BME280;13071;48.868;9.996;2023-01-24T07:35:00;98039.91;;;1.14;100.00
25080;BME280;13071;48.868;9.996;2023-01-24T07:37:26;98048.41;;;1.11;100.00
25080;BME280;13071;48.868;9.996;2023-01-24T07:39:53;98043.88;;;1.12;100.00
25080;BME280;13071;48.868;9.996;2023-01-24T07:42:21;98047.16;;;1.02;100.00
25080;BME280;13071;48.868;9.996;2023-01-24T07:44:48;98054.28;;;1.25;100.00
25080;BME280;13071;48.868;9.996;2023-01-24T07:47:14;98056.88;;;1.08;100.00
25080;BME280;13071;48.868;9.996;2023-01-24T07:49:41;98055.09;;;1.25;100.00
25080;BME280;13071;48.868;9.996;2023-01-24T07:52:07;98053.56;;;1.29;100.00
25080;BME280;13071;48.868;9.996;2023-01-24T07:54:34;98052.16;;;1.39;100.00
25080;BME280;13071;48.868;9.996;2023-01-24T07:57:01;98056.59;;;1.33;99.74
25080;BME280;13071;48.868;9.996;2023-01-24T07:59:28;98059.66;;;1.13;100.00
25080;BME280;13071;48.868;9.996;2023-01-24T08:01:55;98068.81;;;1.17;100.00
25080;BME280;13071;48.868;9.996;2023-01-24T08:04:22;98072.03;;;1.19;100.00
25080;BME280;13071;48.868;9.996;2023-01-24T08:06:48;98074.56;;;1.26;100.00
25080;BME280;13071;48.868;9.996;2023-01-24T08:09:29;98074.47;;;1.21;100.00
25080;BME280;13071;48.868;9.996;2023-01-24T08:11:55;98079.91;;;1.26;100.00
25080;BME280;13071;48.868;9.996;2023-01-24T08:14:22;98074.13;;;1.17;100.00
25080;BME280;13071;48.868;9.996;2023-01-24T08:16:50;98084.81;;;0.94;100.00
25080;BME280;13071;48.868;9.996;2023-01-24T08:19:17;98086.66;;;1.05;100.00
25080;BME280;13071;48.868;9.996;2023-01-24T08:21:43;98094.09;;;1.03;100.00
25080;BME280;13071;48.868;9.996;2023-01-24T08:24:10;98083.19;;;1.16;100.00
25080;BME280;13071;48.868;9.996;2023-01-24T08:26:37;98085.03;;;1.04;100.00
25080;BME280;13071;48.868;9.996;2023-01-24T08:29:04;98089.00;;;1.13;100.00
25080;BME280;13071;48.868;9.996;2023-01-24T08:31:30;98097.31;;;1.05;100.00
25080;BME280;13071;48.868;9.996;2023-01-24T08:33:58;98087.25;;;1.07;100.00
25080;BME280;13071;48.868;9.996;2023-01-24T08:36:25;98095.38;;;1.01;100.00
25080;BME280;13071;48.868;9.996;2023-01-24T08:38:51;98090.25;;;1.22;100.00
25080;BME280;13071;48.868;9.996;2023-01-24T08:41:18;98096.03;;;1.31;100.00
25080;BME280;13071;48.868;9.996;2023-01-24T08:43:44;98104.75;;;0.92;100.00
25080;BME280;13071;48.868;9.996;2023-01-24T08:46:11;98098.03;;;1.12;100.00
25080;BME280;13071;48.868;9.996;2023-01-24T08:48:37;98099.63;;;1.25;100.00
25080;BME280;13071;48.868;9.996;2023-01-24T08:51:05;98097.66;;;1.20;100.00
25080;BME280;13071;48.868;9.996;2023-01-24T08:53:33;98104.50;;;1.05;100.00
25080;BME280;13071;48.868;9.996;2023-01-24T08:55:59;98097.56;;;1.04;100.00
25080;BME280;13071;48.868;9.996;2023-01-24T08:58:26;98108.22;;;1.04;100.00
25080;BME280;13071;48.868;9.996;2023-01-24T09:00:52;98108.59;;;1.07;100.00
25080;BME280;13071;48.868;9.996;2023-01-24T09:03:19;98107.19;;;1.16;100.00
25080;BME280;13071;48.868;9.996;2023-01-24T09:05:45;98110.78;;;1.10;100.00
25080;BME280;13071;48.868;9.996;2023-01-24T09:08:13;98111.81;;;1.21;100.00
25080;BME280;13071;48.868;9.996;2023-01-24T09:10:40;98112.16;;;1.01;100.00
25080;BME280;13071;48.868;9.996;2023-01-24T09:13:07;98116.44;;;1.14;100.00
25080;BME280;13071;48.868;9.996;2023-01-24T09:15:33;98118.75;;;1.34;100.00
25080;BME280;13071;48.868;9.996;2023-01-24T09:18:00;98128.41;;;1.23;100.00
25080;BME280;13071;48.868;9.996;2023-01-24T09:20:27;98128.50;;;1.16;100.00
25080;BME280;13071;48.868;9.996;2023-01-24T09:22:54;98128.50;;;1.28;100.00
25080;BME280;13071;48.868;9.996;2023-01-24T09:25:22;98122.25;;;1.11;100.00
25080;BME280;13071;48.868;9.996;2023-01-24T09:27:52;98137.44;;;1.22;100.00
25080;BME280;13071;48.868;9.996;2023-01-24T09:30:19;98133.59;;;1.41;100.00
25080;BME280;13071;48.868;9.996;2023-01-24T09:32:45;98138.22;;;1.46;99.58
25080;BME280;13071;48.868;9.996;2023-01-24T09:35:12;98134.19;;;1.32;99.86
25080;BME280;13071;48.868;9.996;2023-01-24T09:37:39;98130.59;;;1.38;100.00
25080;BME280;13071;48.868;9.996;2023-01-24T09:40:17;98133.47;;;1.48;99.52
25080;BME280;13071;48.868;9.996;2023-01-24T09:42:53;98125.31;;;1.54;99.23
25080;BME280;13071;48.868;9.996;2023-01-24T09:45:27;98128.63;;;1.33;99.38
25080;BME280;13071;48.868;9.996;2023-01-24T09:47:58;98129.50;;;1.50;99.72
25080;BME280;13071;48.868;9.996;2023-01-24T09:50:29;98137.75;;;1.49;99.74
25080;BME280;13071;48.868;9.996;2023-01-24T09:52:59;98133.19;;;1.61;98.88
25080;BME280;13071;48.868;9.996;2023-01-24T09:55:29;98127.75;;;1.56;98.82
25080;BME280;13071;48.868;9.996;2023-01-24T09:58:03;98134.69;;;1.68;98.50
25080;BME280;13071;48.868;9.996;2023-01-24T10:00:34;98139.31;;;1.73;97.95
25080;BME280;13071;48.868;9.996;2023-01-24T10:03:02;98137.81;;;1.65;98.93
25080;BME280;13071;48.868;9.996;2023-01-24T10:05:32;98136.75;;;1.78;98.12
25080;BME280;13071;48.868;9.996;2023-01-24T10:08:15;98123.97;;;1.40;99.01
25080;BME280;13071;48.868;9.996;2023-01-24T10:10:50;98140.66;;;1.36;100.00
25080;BME280;13071;48.868;9.996;2023-01-24T10:13:43;98134.38;;;1.53;100.00
25080;BME280;13071;48.868;9.996;2023-01-24T10:19:10;98128.47;;;1.51;100.00
25080;BME280;13071;48.868;9.996;2023-01-24T10:22:01;98149.59;;;1.41;100.00
25080;BME280;13071;48.868;9.996;2023-01-24T10:24:34;98134.63;;;1.52;100.00
25080;BME280;13071;48.868;9.996;2023-01-24T10:27:11;98142.41;;;1.42;100.00
25080;BME280;13071;48.868;9.996;2023-01-24T10:29:43;98144.47;;;1.51;100.00
25080;BME280;13071;48.868;9.996;2023-01-24T10:32:12;98139.59;;;1.48;99.80
25080;BME280;13071;48.868;9.996;2023-01-24T10:34:42;98135.91;;;1.38;100.00
25080;BME280;13071;48.868;9.996;2023-01-24T10:37:17;98133.56;;;1.53;99.34
25080;BME280;13071;48.868;9.996;2023-01-24T10:39:45;98125.84;;;1.80;98.93
25080;BME280;13071;48.868;9.996;2023-01-24T10:42:18;98129.31;;;1.80;98.18
25080;BME280;13071;48.868;9.996;2023-01-24T10:44:49;98130.63;;;1.78;98.85
25080;BME280;13071;48.868;9.996;2023-01-24T10:47:38;98142.88;;;1.90;97.65
25080;BME280;13071;48.868;9.996;2023-01-24T10:50:08;98132.94;;;2.02;96.82
25080;BME280;13071;48.868;9.996;2023-01-24T10:52:35;98128.78;;;1.66;97.97
25080;BME280;13071;48.868;9.996;2023-01-24T10:55:03;98134.44;;;1.70;98.59
25080;BME280;13071;48.868;9.996;2023-01-24T10:57:49;98129.81;;;1.65;99.68
25080;BME280;13071;48.868;9.996;2023-01-24T11:00:23;98130.25;;;1.74;98.97
25080;BME280;13071;48.868;9.996;2023-01-24T11:02:53;98123.91;;;1.63;98.87
25080;BME280;13071;48.868;9.996;2023-01-24T11:05:21;98118.91;;;1.67;99.31
25080;BME280;13071;48.868;9.996;2023-01-24T11:07:51;98121.69;;;1.72;98.78
25080;BME280;13071;48.868;9.996;2023-01-24T11:10:21;98113.28;;;1.80;98.50
25080;BME280;13071;48.868;9.996;2023-01-24T11:12:50;98107.09;;;1.91;97.69
25080;BME280;13071;48.868;9.996;2023-01-24T11:15:22;98118.91;;;2.07;96.89
25080;BME280;13071;48.868;9.996;2023-01-24T11:17:53;98112.91;;;1.88;96.93
25080;BME280;13071;48.868;9.996;2023-01-24T11:20:26;98108.03;;;2.13;95.81
25080;BME280;13071;48.868;9.996;2023-01-24T11:23:02;98105.44;;;2.02;95.31
25080;BME280;13071;48.868;9.996;2023-01-24T11:25:29;98105.09;;;2.27;95.27
25080;BME280;13071;48.868;9.996;2023-01-24T11:27:55;98097.34;;;1.97;96.31
25080;BME280;13071;48.868;9.996;2023-01-24T11:30:26;98100.56;;;1.99;96.78
25080;BME280;13071;48.868;9.996;2023-01-24T11:33:05;98092.28;;;2.12;96.23
25080;BME280;13071;48.868;9.996;2023-01-24T11:35:39;98091.78;;;2.15;96.22
25080;BME280;13071;48.868;9.996;2023-01-24T11:38:22;98090.28;;;2.36;94.40
25080;BME280;13071;48.868;9.996;2023-01-24T11:40:58;98080.78;;;2.11;95.61
25080;BME280;13071;48.868;9.996;2023-01-24T11:43:35;98080.41;;;2.53;94.11
25080;BME280;13071;48.868;9.996;2023-01-24T11:46:19;98075.53;;;2.16;94.83
25080;BME280;13071;48.868;9.996;2023-01-24T11:48:52;98077.22;;;2.06;96.72
25080;BME280;13071;48.868;9.996;2023-01-24T11:51:26;98078.13;;;2.28;95.80
25080;BME280;13071;48.868;9.996;2023-01-24T11:54:10;98073.50;;;2.07;96.51
25080;BME280;13071;48.868;9.996;2023-01-24T11:56:48;98073.41;;;2.18;96.10
25080;BME280;13071;48.868;9.996;2023-01-24T11:59:29;98065.88;;;2.32;94.81
25080;BME280;13071;48.868;9.996;2023-01-24T12:02:17;98071.41;;;2.26;94.69
25080;BME280;13071;48.868;9.996;2023-01-24T12:05:00;98065.00;;;2.43;94.60
25080;BME280;13071;48.868;9.996;2023-01-24T12:07:40;98060.06;;;2.35;94.89
25080;BME280;13071;48.868;9.996;2023-01-24T12:10:18;98062.41;;;2.48;93.42
25080;BME280;13071;48.868;9.996;2023-01-24T12:12:51;98051.34;;;2.40;94.47
25080;BME280;13071;48.868;9.996;2023-01-24T12:15:28;98059.03;;;2.36;95.20
25080;BME280;13071;48.868;9.996;2023-01-24T12:18:17;98047.69;;;2.46;94.81
25080;BME280;13071;48.868;9.996;2023-01-24T12:20:56;98062.44;;;2.32;94.79
25080;BME280;13071;48.868;9.996;2023-01-24T12:23:26;98050.19;;;2.52;94.27
25080;BME280;13071;48.868;9.996;2023-01-24T12:25:57;98054.31;;;2.10;95.95
25080;BME280;13071;48.868;9.996;2023-01-24T12:28:32;98054.97;;;2.17;97.01
25080;BME280;13071;48.868;9.996;2023-01-24T12:31:01;98045.03;;;2.46;95.77
25080;BME280;13071;48.868;9.996;2023-01-24T12:33:33;98049.22;;;2.42;94.96
25080;BME280;13071;48.868;9.996;2023-01-24T12:36:09;98041.75;;;2.10;96.84
25080;BME280;13071;48.868;9.996;2023-01-24T12:38:41;98032.63;;;2.23;97.73
25080;BME280;13071;48.868;9.996;2023-01-24T12:41:15;98026.78;;;2.43;96.25
25080;BME280;13071;48.868;9.996;2023-01-24T12:43:51;98036.19;;;2.29;97.11
25080;BME280;13071;48.868;9.996;2023-01-24T12:46:25;98035.16;;;2.46;96.55
25080;BME280;13071;48.868;9.996;2023-01-24T12:49:02;98041.22;;;2.25;97.32
25080;BME280;13071;48.868;9.996;2023-01-24T12:51:40;98033.53;;;2.12;97.92
25080;BME280;13071;48.868;9.996;2023-01-24T12:54:11;98029.06;;;2.34;97.20
25080;BME280;13071;48.868;9.996;2023-01-24T12:56:46;98034.16;;;2.36;97.00
25080;BME280;13071;48.868;9.996;2023-01-24T12:59:16;98027.03;;;2.25;98.30
25080;BME280;13071;48.868;9.996;2023-01-24T13:04:50;98033.59;;;2.34;97.30
25080;BME280;13071;48.868;9.996;2023-01-24T13:07:29;98038.53;;;2.25;98.10
25080;BME280;13071;48.868;9.996;2023-01-24T13:10:04;98031.72;;;2.34;96.81
25080;BME280;13071;48.868;9.996;2023-01-24T13:12:35;98034.16;;;2.19;97.67
25080;BME280;13071;48.868;9.996;2023-01-24T13:15:03;98041.84;;;2.15;98.54
25080;BME280;13071;48.868;9.996;2023-01-24T13:17:40;98042.94;;;2.03;97.99
25080;BME280;13071;48.868;9.996;2023-01-24T13:20:27;98044.91;;;2.24;97.39
25080;BME280;13071;48.868;9.996;2023-01-24T13:23:09;98046.94;;;2.34;96.61
25080;BME280;13071;48.868;9.996;2023-01-24T13:25:52;98054.06;;;2.11;97.76